Terminal Aerodrome Forecast
Issued by NWS

Home | Current Version | Previous Version | Text Only | Print | Product List | Glossary On
Versions: 1 2 3 4 5 6 7 8 9 10 11 12 13 14 15 16
000
FTUS46 KLOX 242324
TAFWJF
TAF
KWJF 242324Z 2500/2524 25020G28KT P6SM SCT120
     FM250300 27018KT P6SM SKC
     FM250900 26010KT P6SM SKC
     FM252100 24018G25KT P6SM SKC=

USA.gov is the U.S. government's official web portal to all federal, state and local government web resources and services.